KMFD

Mansfield Lahm Regional Airport

Mansfield, Ohio, USA
METAR KMFD 181402Z 32006KT 3SM BR OVC005 22/21 A2999 RMK AO2 CIG 003V008 T02170211
Observed Flight Rules
Aug-18 @ 14:02 UTC (49 minutes ago) Instrument Flight Rules
Wind Visibility Clouds Conditions
320° at 6 knots 3 miles
  • Overcast at 500' AGL
  • Mist
Temperatures Readings
Current 22°C / 72°F
Dewpoint 21°C / 70°F
Humidity 94%
Altimeter 29.99" Hg
Pressure 1016 hPa
Elevation 395
METAR KMFD 181402Z 32006KT 3SM BR OVC005 22/21 A2999 RMK AO2 CIG 003V008 T02170211
Observed Flight Rules
Aug-18 @ 14:02 UTC
(49 minutes ago)
IFR
Wind Visibility
320° at 6 knots 3 miles
Clouds
  • Overcast at 500' AGL
Conditions
  • Mist
Temperature Dewpoint
22°C / 72°F 21°C / 70°F
Humidity Altimeter Pressure
94% 29.99" Hg 1016 hPa